Cleveland, OH (44145)

5:13 AM EST on February 11, 2016 (GMT -0500)
Settlers Reserve, Westlake | | Change Station
CLOSE
Current Station
Personal Weather Station
Location: Westlake, OH
Elevation: 709 ft
Nearby Weather Stations
Active Advisory: Lake Effect Snow Advisory Active Notice: Local Storm Report

Elev 709 ft 41.46 °N, 81.93 °W | Updated 5 seconds ago

Overcast
Overcast
15.6 °F
Feels Like 16 °F
N
0.0
Wind Variable Wind from SE
Gusts 0.0 mph

Today
High -- | Low -- °F
--% Chance of Precip.
Yesterday
High -- | Low -- °F
Precip. -- in
Pressure 30.11 in
Visibility 9.0 miles
Clouds Mostly Cloudy 3400 ft
Overcast 4400 ft
Windchill 16 °F
Dew Point -2 °F
Humidity 44%
Rainfall 0.00 in
Snow Depth Not available.
7:28 AM 5:55 PM
Waxing Crescent, 11% visible
METAR KCLE 110951Z 31014G20KT 9SM -SN BKN034 OVC044 M09/M16 A3006 RMK AO2 SLP194 P0000 T10941161 $
Pressure 30.11 in
Visibility 9.0 miles
Clouds Mostly Cloudy 3400 ft
Overcast 4400 ft
Windchill 16 °F
Dew Point -2 °F
Humidity 44%
Rainfall 0.00 in
Snow Depth Not available.
7:28 AM 5:55 PM
Waxing Crescent, 11% visible
METAR KCLE 110951Z 31014G20KT 9SM -SN BKN034 OVC044 M09/M16 A3006 RMK AO2 SLP194 P0000 T10941161 $

10-Day Weather Forecast

Almanac

Astronomy

Feb. 11, 2016 Rise Set
Actual Time
Civil Twilight
Nautical Twilight
Astronomical Twilight
Moon
Length of Visible Light
Length of Day
Tomorrow will be .
, % of the Moon is Illuminated

Today's Extremes

State Highs State Lows

Community

WunderPhotos

Upload Photos

1,892,030 photos uploaded!

WunderBlog® & News

Nearby

Air Quality

  Air Quality AQ Index Pollutant
Not available.

Snow Depth

Station Depth Elevation

Earthquake Activity

City Distance Mag. Time & Date
Minimum magnitude displayed is 2.5.

Coastal Water Temperatures

Place Temperature

Stations

Nearby Weather Stations

Station Location Temp. Windchill Dew Point Humidity Wind Precip. Elev Updated Type
                   

Watches & Warnings

Lake Effect Snow Advisory
Issued: 3:08 AM EST Feb. 11, 2016 – National Weather Service

... Lake effect Snow Advisory now in effect until 10 am EST this
morning...

* accumulations... additional accumulations of 1 to locally 3 inches
are possible on the eastern end of Cuyahoga County. Western
areas will see less than an additional inch of snow.

* Timing... snow showers will diminish later this morning.

* Impacts... snow covered roads and reduced visibility during
heavier snow showers and squalls.

* Winds... northwest 15 to 25 mph with gusts up to 30 mph.

* Temperatures... 12 to 18.

Precautionary/preparedness actions...

In lake effect snow the weather can vary from locally heavy snow
in narrow bands to dry weather just a few miles away. If you will
be traveling across the region be prepared for rapid changes in
Road and visibility conditions. Stay tuned to NOAA Weather Radio
for further details or updates.